createdAt,value
2022-11-05T00:01:22.563Z,7.30
2022-11-05T00:06:44.554Z,7.20
2022-11-05T00:12:06.603Z,6.50
2022-11-05T00:17:09.811Z,7.00
2022-11-05T00:22:31.761Z,8.50
2022-11-05T00:27:34.874Z,6.80
2022-11-05T00:32:38.822Z,6.90
2022-11-05T00:37:48.747Z,6.50
2022-11-05T00:43:12.078Z,6.10
2022-11-05T00:48:34.735Z,4.80
2022-11-05T00:53:37.910Z,8.00
2022-11-05T00:58:41.031Z,7.40
2022-11-05T01:03:48.814Z,6.20
2022-11-05T01:08:56.340Z,7.40
2022-11-05T01:14:09.306Z,7.20
2022-11-05T01:19:12.898Z,6.80
2022-11-05T01:24:16.002Z,6.70
2022-11-05T01:29:19.110Z,7.00
2022-11-05T01:34:22.350Z,6.40
2022-11-05T01:39:25.629Z,33.60
2022-11-05T01:44:52.494Z,12.20
2022-11-05T01:49:59.796Z,8.00
2022-11-05T01:55:05.621Z,7.30
2022-11-05T02:00:09.800Z,7.30
2022-11-05T02:05:14.954Z,7.40
2022-11-05T02:10:19.262Z,5.70
2022-11-05T02:15:55.266Z,5.40
2022-11-05T02:21:30.017Z,5.20
2022-11-05T02:26:48.376Z,7.00
2022-11-05T02:32:29.705Z,6.30
2022-11-05T02:37:53.060Z,8.20
2022-11-05T02:43:43.759Z,6.60
2022-11-05T02:49:20.783Z,4.60
2022-11-05T02:54:43.355Z,9.70
2022-11-05T02:59:46.454Z,16.30
2022-11-05T03:04:49.557Z,17.00
2022-11-05T03:10:20.721Z,13.20
2022-11-05T03:15:36.041Z,11.80
2022-11-05T03:21:17.923Z,11.00
2022-11-05T03:26:30.912Z,10.00
2022-11-05T03:31:37.332Z,9.60
2022-11-05T03:36:53.269Z,7.20
2022-11-05T03:41:58.766Z,10.80
2022-11-05T03:47:09.096Z,11.60
2022-11-05T03:52:21.431Z,10.20
2022-11-05T03:57:31.691Z,6.80
2022-11-05T04:02:35.287Z,9.90
2022-11-05T04:07:57.358Z,7.40
2022-11-05T04:13:19.408Z,8.30
2022-11-05T04:18:23.031Z,7.50
2022-11-05T04:23:44.880Z,9.00
2022-11-05T04:29:07.955Z,7.90
2022-11-05T04:34:11.266Z,9.70
2022-11-05T04:39:14.485Z,9.00
2022-11-05T04:44:17.676Z,7.20
2022-11-05T04:49:20.785Z,7.40
2022-11-05T04:54:23.886Z,5.60
2022-11-05T04:59:27.094Z,7.30
2022-11-05T05:04:30.307Z,8.80
2022-11-05T05:09:33.419Z,13.90
2022-11-05T05:14:36.517Z,16.90
2022-11-05T05:19:58.361Z,12.70
2022-11-05T05:25:01.686Z,10.00
2022-11-05T05:30:05.679Z,8.90
2022-11-05T05:35:09.917Z,7.80
2022-11-05T05:40:13.037Z,9.80
2022-11-05T05:45:16.262Z,6.80
2022-11-05T05:50:19.359Z,7.80
2022-11-05T05:55:22.485Z,7.90
2022-11-05T06:00:25.676Z,12.20
2022-11-05T06:05:29.082Z,7.90
2022-11-05T06:10:32.466Z,9.40
2022-11-05T06:15:36.179Z,10.30
2022-11-05T06:20:39.835Z,5.90
2022-11-05T06:25:42.942Z,10.10
2022-11-05T06:30:52.157Z,10.60
2022-11-05T06:35:59.043Z,9.90
2022-11-05T06:41:09.799Z,10.40
2022-11-05T06:46:14.002Z,11.70
2022-11-05T06:51:17.108Z,7.40
2022-11-05T06:56:20.317Z,8.30
2022-11-05T07:01:23.583Z,9.40
2022-11-05T07:06:29.402Z,10.70
2022-11-05T07:11:34.250Z,10.70
2022-11-05T07:16:37.463Z,9.20
2022-11-05T07:21:41.378Z,10.50
2022-11-05T07:26:44.588Z,11.80
2022-11-05T07:31:47.792Z,11.00
2022-11-05T07:36:51.001Z,12.10
2022-11-05T07:41:55.229Z,10.40
2022-11-05T07:46:58.347Z,13.40
2022-11-05T07:52:01.584Z,11.80
2022-11-05T07:57:04.768Z,13.20
2022-11-05T08:02:11.575Z,10.80
2022-11-05T08:07:14.863Z,10.00
2022-11-05T08:12:17.909Z,13.70
2022-11-05T08:17:21.282Z,13.80
2022-11-05T08:22:24.491Z,13.60
2022-11-05T08:27:28.014Z,14.40
2022-11-05T08:32:31.419Z,18.00
2022-11-05T08:37:34.750Z,13.70
2022-11-05T08:42:38.042Z,13.70
2022-11-05T08:47:41.193Z,17.60
2022-11-05T08:52:44.358Z,17.00
2022-11-05T08:57:47.774Z,15.70
2022-11-05T09:02:50.884Z,19.10
2022-11-05T09:08:00.498Z,26.00
2022-11-05T09:13:04.875Z,30.20
2022-11-05T09:18:14.105Z,31.20
2022-11-05T09:23:17.844Z,28.40
2022-11-05T09:28:23.800Z,36.00
2022-11-05T09:33:27.076Z,48.70
2022-11-05T09:38:31.578Z,30.10
2022-11-05T09:43:47.912Z,21.30
2022-11-05T09:49:06.979Z,23.50
2022-11-05T09:54:14.933Z,23.50
2022-11-05T09:59:26.480Z,25.70
2022-11-05T10:04:33.886Z,25.10
2022-11-05T10:09:47.971Z,25.50
2022-11-05T10:15:21.982Z,26.50
2022-11-05T10:20:35.724Z,23.70
2022-11-05T10:25:45.480Z,36.20
2022-11-05T10:30:56.879Z,26.90
2022-11-05T10:36:08.109Z,22.40
2022-11-05T10:41:40.491Z,22.80
2022-11-05T10:47:21.666Z,23.10
2022-11-05T10:52:27.572Z,19.60
2022-11-05T10:57:40.870Z,24.40
2022-11-05T11:03:01.129Z,20.60
2022-11-05T11:08:24.304Z,19.40
2022-11-05T11:13:48.508Z,15.80
2022-11-05T11:19:01.232Z,15.30
2022-11-05T11:24:07.169Z,14.80
2022-11-05T11:29:26.276Z,17.20
2022-11-05T11:34:39.073Z,17.60
2022-11-05T11:39:49.171Z,16.30
2022-11-05T11:44:52.713Z,17.90
2022-11-05T11:49:59.582Z,15.40
2022-11-05T11:55:11.612Z,16.10
2022-11-05T12:00:17.659Z,18.90
2022-11-05T12:05:54.712Z,17.90
2022-11-05T12:11:46.634Z,17.40
2022-11-05T12:17:20.465Z,15.50
2022-11-05T12:23:12.272Z,17.50
2022-11-05T12:29:04.456Z,14.20
2022-11-05T12:34:13.105Z,15.30
2022-11-05T12:39:48.875Z,26.00
2022-11-05T12:45:01.650Z,12.50
2022-11-05T12:50:24.930Z,13.60
2022-11-05T12:55:48.085Z,13.20
2022-11-05T13:01:09.875Z,13.20
2022-11-05T13:06:30.586Z,13.00
2022-11-05T13:12:05.307Z,14.70
2022-11-05T13:17:39.612Z,17.70
2022-11-05T13:22:48.760Z,13.90
2022-11-05T13:28:19.970Z,12.60
2022-11-05T13:33:31.952Z,12.10
2022-11-05T13:38:54.202Z,12.20
2022-11-05T13:44:24.884Z,13.40
2022-11-05T13:49:40.052Z,15.00
2022-11-05T13:54:51.948Z,14.20
2022-11-05T14:00:17.592Z,15.20
2022-11-05T14:05:42.497Z,11.00
2022-11-05T14:11:18.683Z,14.20
2022-11-05T14:16:25.985Z,14.90
2022-11-05T14:21:50.313Z,15.10
2022-11-05T14:27:02.819Z,21.00
2022-11-05T14:32:20.870Z,27.20
2022-11-05T14:37:33.092Z,20.70
2022-11-05T14:42:37.632Z,15.00
2022-11-05T14:48:01.932Z,14.30
2022-11-05T14:53:37.501Z,12.70
2022-11-05T14:58:43.563Z,11.30
2022-11-05T15:04:18.375Z,13.60
2022-11-05T15:09:40.683Z,12.50
2022-11-05T15:15:00.561Z,12.10
2022-11-05T15:20:06.764Z,14.80
2022-11-05T15:25:57.174Z,16.90
2022-11-05T15:31:39.647Z,16.10
2022-11-05T15:37:02.822Z,19.40
2022-11-05T15:42:19.609Z,20.60
2022-11-05T15:47:25.796Z,16.30
2022-11-05T15:52:42.525Z,16.10
2022-11-05T15:58:01.018Z,12.20
2022-11-05T16:03:24.908Z,13.50
2022-11-05T16:08:30.793Z,15.10
2022-11-05T16:13:41.170Z,14.60
2022-11-05T16:18:45.986Z,11.30
2022-11-05T16:23:49.276Z,13.90
2022-11-05T16:28:53.819Z,12.80
2022-11-05T16:33:58.670Z,11.20
2022-11-05T16:39:01.975Z,10.30
2022-11-05T16:44:05.402Z,28.70
2022-11-05T16:49:12.690Z,9.50
2022-11-05T16:54:15.702Z,10.80
2022-11-05T16:59:19.013Z,12.00
2022-11-05T17:04:22.110Z,10.50
2022-11-05T17:09:25.333Z,8.70
2022-11-05T17:14:28.837Z,7.80
2022-11-05T17:19:32.392Z,8.90
2022-11-05T17:24:35.665Z,9.20
2022-11-05T17:29:38.915Z,7.90
2022-11-05T17:34:41.980Z,8.60
2022-11-05T17:39:45.125Z,10.90
2022-11-05T17:44:48.294Z,9.10
2022-11-05T17:49:51.504Z,11.40
2022-11-05T17:54:54.653Z,20.90
2022-11-05T17:59:57.818Z,15.50
2022-11-05T18:05:01.033Z,12.00
2022-11-05T18:10:05.870Z,11.40
2022-11-05T18:15:10.013Z,9.90
2022-11-05T18:20:19.215Z,12.50
2022-11-05T18:25:23.098Z,14.00
2022-11-05T18:30:26.412Z,15.70
2022-11-05T18:35:29.918Z,15.60
2022-11-05T18:40:33.014Z,13.80
2022-11-05T18:45:36.135Z,13.10
2022-11-05T18:50:40.356Z,14.50
2022-11-05T18:55:43.698Z,13.70
2022-11-05T19:00:47.171Z,11.80
2022-11-05T19:05:50.282Z,11.30
2022-11-05T19:10:53.592Z,12.80
2022-11-05T19:15:56.802Z,13.50
2022-11-05T19:21:00.011Z,17.30
2022-11-05T19:26:11.565Z,18.70
2022-11-05T19:31:20.235Z,16.20
2022-11-05T19:41:28.973Z,16.30
2022-11-05T19:46:32.693Z,14.50
2022-11-05T19:51:36.055Z,14.20
2022-11-05T19:56:39.467Z,12.50
2022-11-05T20:01:45.207Z,10.20
2022-11-05T20:06:48.674Z,9.60
2022-11-05T20:11:54.748Z,9.50
2022-11-05T20:16:58.259Z,9.80
2022-11-05T20:22:01.760Z,11.90
2022-11-05T20:27:05.182Z,12.80
2022-11-05T20:32:09.573Z,11.40
2022-11-05T20:37:12.818Z,10.10
2022-11-05T20:42:15.961Z,8.70
2022-11-05T20:47:19.132Z,9.60
2022-11-05T20:52:22.148Z,12.20
2022-11-05T20:57:25.345Z,11.00
2022-11-05T21:02:28.831Z,10.90
2022-11-05T21:07:32.209Z,11.10
2022-11-05T21:12:35.381Z,11.20
2022-11-05T21:17:39.734Z,10.70
2022-11-05T21:22:45.589Z,11.20
2022-11-05T21:27:48.805Z,10.90
2022-11-05T21:32:52.926Z,10.50
2022-11-05T21:37:56.133Z,9.90
2022-11-05T21:42:59.344Z,8.10
2022-11-05T21:48:02.858Z,9.00
2022-11-05T21:53:24.906Z,10.20
2022-11-05T21:58:46.965Z,10.00
2022-11-05T22:03:50.083Z,9.60
2022-11-05T22:08:53.275Z,8.40
2022-11-05T22:13:56.378Z,8.00
2022-11-05T22:19:00.042Z,7.30
2022-11-05T22:24:03.720Z,8.90
2022-11-05T22:29:07.848Z,8.30
2022-11-05T22:34:12.079Z,6.90
2022-11-05T22:39:15.706Z,7.40
2022-11-05T22:44:18.803Z,7.50
2022-11-05T22:49:22.523Z,7.80
2022-11-05T22:54:25.738Z,7.70
2022-11-05T22:59:29.052Z,8.50
2022-11-05T23:04:32.281Z,9.00
2022-11-05T23:09:54.506Z,8.30
2022-11-05T23:15:01.292Z,8.90
2022-11-05T23:20:30.116Z,8.20
2022-11-05T23:25:33.316Z,7.10
2022-11-05T23:31:00.794Z,9.80
2022-11-05T23:36:42.645Z,8.90
2022-11-05T23:42:04.592Z,8.80
2022-11-05T23:47:27.052Z,8.40
2022-11-05T23:52:30.223Z,7.20
2022-11-05T23:57:33.248Z,7.80
